Pagina principale
METAR-TAF:

METAR-TAF

Aeroporti :

Aeroporto di Dakar-Léopold Sedar Senghor

Dakar, Senegal

latitudine: 14-44N, longitudine: 017-30W, altezza: 27 m

Osservazione

Il bollettino è stato emesso 43 minuti fa, alle 09:00 UTC
Vento 4 kt da nord
Temperature 26°C
Umidità 74%
Pressione 1013 hPa
Visibilità 10 km o più
nessuna nube inferiore a 1500 m e nessun cumulonembo

METAR: GOOY 070900Z 36004KT CAVOK 26/21 Q1013

Ora: 09:43 (09:43 UTC)

Previsione

Il bollettino è stato emesso 4 ore e 13 minuti fa, alle 05:30 UTC
Previsione valida dal 07 alle 06 UTC al 08 alle 12 UTC
Vento 12 kt da nord/nord-ovest
Visibilità: 8000 m
Evoluzione graduale
dal 07 alle 09 UTC al 07 alle 11 UTC
Visibilità: 4500 m
polvere diffusa

TAF: GOOY 070530Z 0706/0812 34012KT 8000 NSC BECMG 0709/0711 4500 DU

Osservazioni e previsioni meteorologiche di più di 4000 aeroporti (messaggi METAR e TAF).

Le stazioni disponibili sono rappresentate dai dischi gialli e rossi sulla carta.

Puntare il mouse per vedere il nome della stazione.

Clicca sopra per visualizzare le osservazioni e previsioni meteorologiche.

Per cambiare la mappa : fare clic sui pulsanti verdi con una croce nera per ingrandire, il pulsante verde con un trattino per diminuire, o sulla freccia verde per le mappe adiacenti.


METAR-TAF: